createdAt,value
2019-03-18T00:09:56.321Z,1.60
2019-03-18T00:20:01.209Z,1.47
2019-03-18T00:30:16.789Z,1.33
2019-03-18T00:40:21.836Z,2.10
2019-03-18T00:50:26.843Z,2.60
2019-03-18T01:00:31.923Z,2.10
2019-03-18T01:10:36.817Z,2.70
2019-03-18T01:20:41.722Z,3.10
2019-03-18T01:30:46.611Z,3.20
2019-03-18T01:40:51.485Z,2.70
2019-03-18T01:50:56.600Z,2.53
2019-03-18T02:01:01.686Z,3.37
2019-03-18T02:11:07.714Z,2.73
2019-03-18T02:21:13.739Z,2.62
2019-03-18T02:31:18.721Z,2.03
2019-03-18T02:41:23.617Z,2.63
2019-03-18T02:51:28.602Z,2.37
2019-03-18T03:01:33.718Z,2.83
2019-03-18T03:11:38.626Z,2.60
2019-03-18T03:21:43.590Z,2.60
2019-03-18T03:31:48.485Z,8.97
2019-03-18T03:41:53.482Z,5.63
2019-03-18T03:51:58.473Z,5.63
2019-03-18T04:02:03.491Z,3.50
2019-03-18T04:12:08.359Z,3.73
2019-03-18T04:22:13.334Z,3.77
2019-03-18T04:32:18.225Z,12.47
2019-03-18T04:42:23.127Z,11.63
2019-03-18T04:52:28.004Z,5.90
2019-03-18T05:02:32.998Z,6.40
2019-03-18T05:12:37.888Z,5.90
2019-03-18T05:22:42.867Z,5.10
2019-03-18T05:32:47.788Z,5.20
2019-03-18T05:42:52.673Z,16.83
2019-03-18T05:52:57.567Z,6.13
2019-03-18T06:03:02.664Z,6.50
2019-03-18T06:13:07.539Z,8.67
2019-03-18T06:23:12.434Z,8.68
2019-03-18T06:33:17.338Z,7.47
2019-03-18T06:43:22.426Z,6.47
2019-03-18T06:53:27.341Z,7.87
2019-03-18T07:03:32.244Z,13.63
2019-03-18T07:13:37.210Z,6.30
2019-03-18T07:23:42.203Z,5.30
2019-03-18T07:33:47.092Z,9.63
2019-03-18T07:43:51.990Z,6.43
2019-03-18T07:53:56.879Z,6.30
2019-03-18T08:04:02.087Z,8.13
2019-03-18T08:14:07.029Z,5.17
2019-03-18T08:24:12.076Z,5.77
2019-03-18T08:34:17.158Z,4.73
2019-03-18T08:44:22.052Z,4.60
2019-03-18T08:54:30.034Z,5.10
2019-03-18T09:04:35.115Z,9.38
2019-03-18T09:14:40.103Z,8.20
2019-03-18T09:24:45.094Z,5.07
2019-03-18T09:34:50.086Z,6.47
2019-03-18T09:44:55.087Z,5.10
2019-03-18T09:55:00.363Z,6.70
2019-03-18T10:05:06.719Z,5.30
2019-03-18T10:25:42.176Z,4.93
2019-03-18T10:35:47.073Z,4.03
2019-03-18T10:45:52.164Z,4.10
2019-03-18T10:56:07.172Z,4.00
2019-03-18T11:06:03.838Z,4.77
2019-03-18T11:16:08.784Z,5.13
2019-03-18T11:26:14.814Z,4.57
2019-03-18T11:36:19.694Z,4.33
2019-03-18T11:46:24.582Z,3.83
2019-03-18T11:56:29.480Z,3.33
2019-03-18T12:06:34.364Z,2.80
2019-03-18T12:16:39.358Z,2.87
2019-03-18T12:26:44.260Z,2.33
2019-03-18T12:36:49.253Z,1.90
2019-03-18T12:46:54.341Z,2.33
2019-03-18T12:56:59.351Z,2.10
2019-03-18T13:07:05.349Z,3.08
2019-03-18T13:17:10.346Z,4.57
2019-03-18T13:27:15.338Z,4.13
2019-03-18T13:37:20.337Z,3.00
2019-03-18T13:47:46.029Z,4.50
2019-03-18T13:57:50.910Z,3.07
2019-03-18T14:08:00.879Z,1.40
2019-03-18T14:18:02.736Z,1.33
2019-03-18T14:28:10.097Z,1.60
2019-03-18T14:38:15.038Z,2.65
2019-03-18T14:48:19.985Z,2.03
2019-03-18T14:58:25.098Z,2.87
2019-03-18T15:08:30.331Z,1.40
2019-03-18T15:18:35.494Z,1.23
2019-03-18T15:28:40.526Z,1.93
2019-03-18T15:38:46.628Z,3.17
2019-03-18T15:48:51.975Z,3.00
2019-03-18T15:58:57.142Z,1.90
2019-03-18T16:09:02.760Z,4.12
2019-03-18T16:19:08.066Z,5.40
2019-03-18T16:29:13.459Z,6.50
2019-03-18T16:39:18.869Z,9.17
2019-03-18T16:49:24.149Z,7.80
2019-03-18T16:59:29.662Z,7.77
2019-03-18T17:09:35.043Z,9.10
2019-03-18T17:19:40.379Z,10.23
2019-03-18T17:29:45.830Z,8.27
2019-03-18T17:39:51.323Z,6.73
2019-03-18T17:49:56.560Z,13.40
2019-03-18T18:00:01.978Z,18.17
2019-03-18T18:10:10.638Z,14.57
2019-03-18T18:20:16.451Z,10.93
2019-03-18T18:30:21.959Z,14.43
2019-03-18T18:40:29.523Z,9.83
2019-03-18T18:50:34.939Z,9.40
2019-03-18T19:00:40.319Z,9.00
2019-03-18T19:10:45.873Z,10.13
2019-03-18T19:20:51.565Z,13.27
2019-03-18T19:30:56.980Z,12.00
2019-03-18T19:41:02.444Z,10.77
2019-03-18T19:51:07.981Z,17.00
2019-03-18T20:01:13.406Z,13.20
2019-03-18T20:11:18.700Z,16.93
2019-03-18T20:21:23.994Z,8.13
2019-03-18T20:31:29.258Z,7.63
2019-03-18T20:41:34.434Z,32.47
2019-03-18T20:51:39.923Z,22.13
2019-03-18T21:01:45.172Z,18.67
2019-03-18T21:11:50.568Z,14.53
2019-03-18T21:21:55.966Z,9.17
2019-03-18T21:32:01.433Z,12.37
2019-03-18T21:42:06.713Z,16.03
2019-03-18T21:52:11.863Z,7.13
2019-03-18T22:02:16.973Z,9.03
2019-03-18T22:12:22.223Z,8.33
2019-03-18T22:22:27.213Z,9.07
2019-03-18T22:32:32.097Z,8.00
2019-03-18T22:42:38.228Z,9.70
2019-03-18T22:52:43.219Z,11.63
2019-03-18T23:02:48.099Z,11.85
2019-03-18T23:12:53.204Z,7.23
2019-03-18T23:22:58.297Z,7.60
2019-03-18T23:33:03.299Z,6.67
2019-03-18T23:43:08.178Z,7.23
2019-03-18T23:53:15.891Z,6.03
